createdAt,value
2022-08-02T00:00:58.084Z,19.52
2022-08-02T00:03:25.641Z,19.54
2022-08-02T00:05:54.091Z,19.59
2022-08-02T00:08:22.064Z,19.45
2022-08-02T00:10:49.811Z,19.30
2022-08-02T00:13:17.315Z,19.30
2022-08-02T00:15:44.759Z,19.35
2022-08-02T00:18:12.300Z,19.22
2022-08-02T00:20:39.713Z,19.22
2022-08-02T00:23:07.158Z,19.31
2022-08-02T00:25:34.764Z,19.47
2022-08-02T00:28:02.203Z,19.32
2022-08-02T00:30:29.973Z,19.26
2022-08-02T00:32:57.412Z,19.34
2022-08-02T00:35:25.166Z,19.40
2022-08-02T00:37:52.668Z,19.47
2022-08-02T00:40:21.654Z,19.57
2022-08-02T00:43:00.243Z,19.59
2022-08-02T00:46:02.173Z,19.53
2022-08-02T00:48:15.412Z,19.52
2022-08-02T00:50:42.966Z,19.53
2022-08-02T00:53:10.533Z,19.42
2022-08-02T00:55:39.560Z,19.37
2022-08-02T00:58:08.350Z,19.33
2022-08-02T01:00:36.865Z,19.33
2022-08-02T01:03:04.695Z,19.30
2022-08-02T01:05:55.859Z,19.28
2022-08-02T01:08:22.174Z,19.43
2022-08-02T01:10:57.296Z,19.36
2022-08-02T01:13:24.915Z,19.38
2022-08-02T01:15:55.339Z,19.48
2022-08-02T01:18:25.067Z,19.29
2022-08-02T01:21:01.882Z,19.39
2022-08-02T01:23:44.525Z,19.40
2022-08-02T01:26:23.910Z,19.25
2022-08-02T01:28:51.388Z,19.33
2022-08-02T01:31:32.894Z,19.34
2022-08-02T01:34:19.333Z,19.31
2022-08-02T01:36:54.258Z,19.32
2022-08-02T01:39:26.687Z,19.42
2022-08-02T01:41:59.590Z,19.50
2022-08-02T01:44:27.617Z,19.52
2022-08-02T01:46:56.316Z,19.46
2022-08-02T01:49:23.850Z,19.48
2022-08-02T01:52:10.229Z,19.56
2022-08-02T01:54:38.281Z,19.66
2022-08-02T01:57:06.404Z,19.70
2022-08-02T01:59:34.557Z,19.65
2022-08-02T02:02:02.119Z,19.66
2022-08-02T02:04:30.726Z,19.55
2022-08-02T02:06:58.262Z,19.59
2022-08-02T02:09:26.854Z,19.64
2022-08-02T02:12:11.773Z,19.49
2022-08-02T02:14:41.074Z,19.43
2022-08-02T02:17:53.014Z,19.37
2022-08-02T02:20:07.803Z,19.41
2022-08-02T02:22:35.508Z,19.53
2022-08-02T02:25:06.386Z,19.47
2022-08-02T02:27:34.371Z,19.44
2022-08-02T02:30:05.014Z,19.48
2022-08-02T02:32:32.496Z,19.54
2022-08-02T02:34:59.978Z,19.68
2022-08-02T02:37:28.037Z,19.59
2022-08-02T02:39:55.748Z,19.71
2022-08-02T02:42:24.135Z,19.74
2022-08-02T02:44:51.714Z,19.77
2022-08-02T02:47:19.531Z,19.76
2022-08-02T02:49:48.758Z,19.73
2022-08-02T02:52:16.714Z,19.84
2022-08-02T02:54:44.230Z,19.86
2022-08-02T02:57:11.664Z,19.87
2022-08-02T02:59:43.077Z,19.85
2022-08-02T03:02:17.609Z,19.98
2022-08-02T03:04:56.992Z,19.98
2022-08-02T03:07:26.177Z,20.02
2022-08-02T03:09:54.914Z,20.08
2022-08-02T03:12:30.577Z,20.00
2022-08-02T03:15:04.856Z,19.96
2022-08-02T03:17:39.385Z,19.85
2022-08-02T03:20:08.658Z,20.05
2022-08-02T03:22:36.481Z,19.94
2022-08-02T03:25:03.944Z,19.99
2022-08-02T03:27:31.926Z,19.76
2022-08-02T03:29:59.554Z,19.80
2022-08-02T03:32:27.182Z,19.94
2022-08-02T03:34:54.732Z,20.06
2022-08-02T03:37:22.153Z,20.11
2022-08-02T03:39:51.095Z,20.07
2022-08-02T03:42:21.266Z,20.15
2022-08-02T03:44:49.195Z,20.04
2022-08-02T03:47:16.959Z,20.09
2022-08-02T03:49:44.424Z,20.36
2022-08-02T03:52:12.141Z,20.39
2022-08-02T03:54:45.657Z,20.32
2022-08-02T03:57:13.654Z,20.19
2022-08-02T03:59:45.021Z,20.35
2022-08-02T04:02:13.205Z,20.51
2022-08-02T04:04:40.836Z,20.46
2022-08-02T04:07:09.541Z,20.45
2022-08-02T04:09:37.111Z,20.34
2022-08-02T04:12:04.767Z,20.29
2022-08-02T04:14:35.571Z,20.45
2022-08-02T04:17:05.106Z,20.58
2022-08-02T04:19:34.750Z,20.77
2022-08-02T04:22:04.973Z,20.79
2022-08-02T04:24:34.986Z,20.70
2022-08-02T04:27:06.877Z,20.57
2022-08-02T04:29:49.952Z,20.59
2022-08-02T04:32:17.518Z,20.61
2022-08-02T04:35:11.192Z,20.88
2022-08-02T04:37:33.929Z,20.81
2022-08-02T04:40:01.361Z,20.79
2022-08-02T17:28:41.647Z,30.25
2022-08-02T17:31:29.706Z,29.90
2022-08-02T17:33:58.452Z,29.60
2022-08-02T17:36:26.080Z,29.58
2022-08-02T17:38:53.447Z,29.30
2022-08-02T17:41:23.688Z,29.34
2022-08-02T17:44:05.979Z,29.16
2022-08-02T17:46:36.003Z,29.20
2022-08-02T17:49:17.345Z,29.22
2022-08-02T17:52:48.589Z,29.24
2022-08-02T17:54:32.986Z,29.07
2022-08-02T17:57:11.406Z,29.06
2022-08-02T17:59:41.797Z,29.02
2022-08-02T18:02:11.134Z,28.61
2022-08-02T18:04:38.963Z,28.28
2022-08-02T18:07:09.860Z,28.13
2022-08-02T18:09:43.276Z,28.27
2022-08-02T18:12:14.185Z,27.91
2022-08-02T18:14:48.789Z,27.85
2022-08-02T18:17:16.819Z,28.01
2022-08-02T18:19:57.181Z,27.97
2022-08-02T18:22:31.013Z,27.95
2022-08-02T18:24:58.562Z,27.86
2022-08-02T18:27:25.969Z,27.83
2022-08-02T18:30:00.491Z,27.80
2022-08-02T18:33:55.282Z,27.86
2022-08-02T18:35:20.756Z,27.75
2022-08-02T18:37:57.063Z,27.40
2022-08-02T18:40:28.292Z,27.13
2022-08-02T18:42:55.674Z,27.15
2022-08-02T18:45:23.067Z,27.14
2022-08-02T18:47:51.405Z,27.16
2022-08-02T18:50:20.106Z,27.08
2022-08-02T18:52:50.537Z,27.12
2022-08-02T18:55:59.432Z,27.13
2022-08-02T18:58:19.455Z,26.77
2022-08-02T19:00:51.475Z,26.89
2022-08-02T19:03:19.595Z,27.02
2022-08-02T19:05:51.785Z,27.07
2022-08-02T19:08:26.313Z,26.25
2022-08-02T19:10:56.280Z,25.57
2022-08-02T19:13:25.900Z,24.75
2022-08-02T19:15:53.309Z,24.49
2022-08-02T19:21:09.097Z,24.25
2022-08-02T19:23:36.525Z,23.94
2022-08-02T19:26:22.174Z,23.87
2022-08-02T19:28:49.559Z,23.98
2022-08-02T19:31:17.052Z,23.94
2022-08-02T19:34:06.279Z,23.88
2022-08-02T19:36:34.431Z,23.80
2022-08-02T19:39:01.922Z,23.71
2022-08-02T19:41:29.475Z,23.84
2022-08-02T19:44:26.003Z,23.71
2022-08-02T19:46:56.311Z,23.43
2022-08-02T19:49:39.930Z,23.39
2022-08-02T19:52:21.066Z,23.57
2022-08-02T19:57:37.619Z,23.62
2022-08-02T20:00:11.165Z,23.69
2022-08-02T20:02:41.680Z,23.62
2022-08-02T20:05:16.342Z,23.25
2022-08-02T20:07:56.285Z,23.19
2022-08-02T20:10:24.716Z,23.34
2022-08-02T20:12:54.228Z,23.31
2022-08-02T20:15:21.908Z,23.28
2022-08-02T20:17:49.399Z,23.15
2022-08-02T20:20:17.143Z,23.23
2022-08-02T20:23:32.448Z,23.14
2022-08-02T20:25:51.327Z,23.27
2022-08-02T20:28:22.126Z,22.96
2022-08-02T20:30:50.079Z,22.87
2022-08-02T20:36:05.921Z,22.85
2022-08-02T20:38:33.658Z,22.84
2022-08-02T20:41:02.775Z,22.86
2022-08-02T20:43:31.710Z,23.16
2022-08-02T20:46:03.180Z,23.10
2022-08-02T20:48:31.349Z,22.96
2022-08-02T20:51:00.317Z,22.81
2022-08-02T20:53:43.029Z,22.93
2022-08-02T20:56:22.712Z,22.97
2022-08-02T20:58:51.946Z,23.14
2022-08-02T21:01:21.279Z,22.85
2022-08-02T21:03:53.668Z,22.88
2022-08-02T21:06:28.080Z,22.83
2022-08-02T21:08:56.522Z,22.97
2022-08-02T21:11:33.854Z,22.81
2022-08-02T21:14:08.711Z,22.68
2022-08-02T21:16:37.036Z,22.74
2022-08-02T21:19:09.536Z,22.63
2022-08-02T21:21:37.528Z,22.82
2022-08-02T21:24:05.127Z,23.03
2022-08-02T21:26:32.915Z,22.93
2022-08-02T21:29:03.801Z,22.98
2022-08-02T21:31:36.133Z,22.85
2022-08-02T21:34:21.839Z,22.81
2022-08-02T21:36:53.185Z,22.91
2022-08-02T21:39:20.735Z,22.83
2022-08-02T21:41:48.316Z,22.85
2022-08-02T21:44:16.541Z,22.94
2022-08-02T21:46:45.221Z,23.07
2022-08-02T21:49:13.877Z,22.93
2022-08-02T21:51:43.063Z,23.08
2022-08-02T21:54:17.904Z,23.18
2022-08-02T21:56:48.370Z,23.04
2022-08-02T21:59:18.847Z,22.86
2022-08-02T22:01:56.695Z,22.95
2022-08-02T22:04:26.003Z,22.87
2022-08-02T22:06:55.083Z,22.86
2022-08-02T22:09:42.517Z,22.83
2022-08-02T22:12:16.481Z,22.99
2022-08-02T22:14:49.597Z,22.57
2022-08-02T22:17:21.726Z,22.56
2022-08-02T22:20:09.504Z,22.90
2022-08-02T22:22:40.251Z,22.69
2022-08-02T22:25:10.088Z,22.80
2022-08-02T22:28:13.363Z,22.75
2022-08-02T22:30:26.815Z,22.93
2022-08-02T22:33:15.552Z,22.63
2022-08-02T22:35:43.049Z,22.61
2022-08-02T22:40:57.880Z,22.63
2022-08-02T22:43:25.371Z,22.74
2022-08-02T22:45:58.751Z,22.66
2022-08-02T22:48:27.032Z,22.69
2022-08-02T22:50:55.155Z,22.53
2022-08-02T22:53:35.398Z,22.52
2022-08-02T22:56:04.026Z,22.40
2022-08-02T22:58:32.655Z,22.47
2022-08-02T22:58:53.721Z,23.53
2022-08-02T22:58:57.318Z,24.46
2022-08-02T22:59:06.042Z,22.89
2022-08-02T22:59:09.599Z,22.40
2022-08-02T23:01:00.386Z,22.44
2022-08-02T23:03:28.008Z,22.48
2022-08-02T23:05:55.448Z,22.51
2022-08-02T23:08:23.028Z,22.55
2022-08-02T23:10:50.601Z,22.42
2022-08-02T23:13:18.023Z,22.44
2022-08-02T23:16:03.891Z,22.28
2022-08-02T23:18:50.126Z,22.34
2022-08-02T23:21:45.759Z,22.36
2022-08-02T23:24:05.455Z,22.44
2022-08-02T23:26:33.132Z,22.32
2022-08-02T23:29:00.776Z,22.38
2022-08-02T23:31:38.045Z,22.02
2022-08-02T23:34:05.971Z,21.89
2022-08-02T23:36:34.131Z,22.13
2022-08-02T23:39:01.527Z,22.22
2022-08-02T23:41:29.097Z,22.25
2022-08-02T23:44:13.141Z,22.11
2022-08-02T23:46:44.637Z,22.14
2022-08-02T23:49:12.900Z,21.81
2022-08-02T23:51:40.371Z,22.13
2022-08-02T23:54:07.821Z,22.18
2022-08-02T23:56:35.311Z,22.02
2022-08-02T23:59:02.838Z,22.12
